Time;durP1;ratioP1;P1;durP2;ratioP2;P2;SDS_P1;SDS_P2;PMS_P1;PMS_P2;Temp;Humidity;BMP_temperature;BMP_pressure;BME280_temperature;BME280_humidity;BME280_pressure;Samples;Min_cycle;Max_cycle;Signal;HPM_P1;HPM_P2
2023/12/01 00:01:33;;;;;;;15.27;9.27;;;;;;;-5.52;100.00;100470.38;4985422;28;20176;-50
2023/12/01 00:03:58;;;;;;;16.08;9.68;;;;;;;-5.67;100.00;100477.88;4992411;28;20193;-49
2023/12/01 00:06:23;;;;;;;17.88;11.15;;;;;;;-5.66;100.00;100474.44;4983010;28;20205;-49
2023/12/01 00:08:49;;;;;;;18.65;10.93;;;;;;;-5.60;100.00;100480.66;4985037;28;20208;-48
2023/12/01 00:11:14;;;;;;;16.95;10.50;;;;;;;-5.68;100.00;100478.75;4981075;28;20198;-51
2023/12/01 00:13:40;;;;;;;18.85;10.52;;;;;;;-5.67;100.00;100477.88;4991505;28;20237;-49
2023/12/01 00:16:06;;;;;;;18.48;10.88;;;;;;;-5.68;100.00;100483.97;4982777;28;20238;-50
2023/12/01 00:18:31;;;;;;;15.35;9.68;;;;;;;-5.64;100.00;100476.22;4988957;28;20749;-49
2023/12/01 00:20:57;;;;;;;19.13;10.93;;;;;;;-5.71;100.00;100487.34;4975827;28;20233;-47
2023/12/01 00:23:22;;;;;;;17.70;10.60;;;;;;;-5.65;100.00;100487.50;4980526;28;20182;-44
2023/12/01 00:25:48;;;;;;;17.02;10.05;;;;;;;-5.67;100.00;100477.88;4986744;28;20173;-44
2023/12/01 00:28:14;;;;;;;15.20;9.75;;;;;;;-5.71;100.00;100476.91;4989419;28;20192;-44
2023/12/01 00:30:39;;;;;;;18.73;11.40;;;;;;;-5.68;100.00;100484.81;4964062;28;20960;-41
2023/12/01 00:33:05;;;;;;;14.43;9.65;;;;;;;-5.61;100.00;100486.72;4982564;28;20700;-46
2023/12/01 00:35:30;;;;;;;18.58;10.57;;;;;;;-5.57;100.00;100485.06;4990227;28;20247;-45
2023/12/01 00:37:56;;;;;;;14.07;9.30;;;;;;;-5.52;100.00;100490.38;4977315;28;20180;-43
2023/12/01 00:40:22;;;;;;;17.02;9.68;;;;;;;-5.51;100.00;100482.59;4967917;28;20272;-44
2023/12/01 00:42:47;;;;;;;17.10;11.00;;;;;;;-5.56;100.00;100484.19;4982391;28;20619;-44
2023/12/01 00:45:14;;;;;;;16.15;10.48;;;;;;;-5.51;100.00;100489.50;4982589;28;20481;-43
2023/12/01 00:47:40;;;;;;;16.88;10.75;;;;;;;-5.60;100.00;100488.50;4972675;28;20361;-44
2023/12/01 00:50:06;;;;;;;17.23;10.30;;;;;;;-5.56;100.00;100494.63;4989941;28;20284;-44
2023/12/01 00:52:31;;;;;;;17.05;10.07;;;;;;;-5.46;100.00;100487.91;4980981;28;20182;-43
2023/12/01 00:54:57;;;;;;;18.15;11.35;;;;;;;-5.50;100.00;100479.13;4986968;28;20173;-44
2023/12/01 00:57:22;;;;;;;17.05;10.40;;;;;;;-5.50;100.00;100483.47;4964569;28;20188;-44
2023/12/01 00:59:48;;;;;;;15.65;10.55;;;;;;;-5.46;100.00;100487.91;4973245;28;20210;-43
2023/12/01 01:02:13;;;;;;;17.30;10.63;;;;;;;-5.50;100.00;100493.91;4970616;28;20651;-45
2023/12/01 01:04:39;;;;;;;19.52;11.32;;;;;;;-5.47;100.00;100494.84;4978744;28;20266;-44
2023/12/01 01:07:05;;;;;;;16.35;11.23;;;;;;;-5.40;100.00;100488.00;4975268;28;20170;-44
2023/12/01 01:09:30;;;;;;;15.50;10.25;;;;;;;-5.41;100.00;100494.09;4988563;28;20710;-43
2023/12/01 01:11:56;;;;;;;18.05;10.88;;;;;;;-5.37;100.00;100495.94;4967597;28;20242;-42
2023/12/01 01:14:21;;;;;;;13.65;10.10;;;;;;;-5.41;100.00;100499.31;4972160;28;20284;-43
2023/12/01 01:16:47;;;;;;;18.90;11.80;;;;;;;-5.46;100.00;100498.34;4967469;28;20184;-44
2023/12/01 01:19:12;;;;;;;13.57;9.52;;;;;;;-5.41;100.00;100504.53;4970685;28;20271;-44
2023/12/01 01:21:38;;;;;;;18.02;10.40;;;;;;;-5.42;100.00;100508.00;4970577;28;20189;-43
2023/12/01 01:24:03;;;;;;;17.10;10.88;;;;;;;-5.38;100.00;100509.81;4992030;28;20632;-44
2023/12/01 01:26:29;;;;;;;16.00;10.35;;;;;;;-5.40;100.00;100509.81;4990955;28;20177;-43
2023/12/01 01:28:55;;;;;;;21.95;11.52;;;;;;;-5.45;100.00;100513.16;4977200;28;20189;-44
2023/12/01 01:31:20;;;;;;;17.02;10.25;;;;;;;-5.32;100.00;100516.91;4984067;28;20209;-44
2023/12/01 01:33:46;;;;;;;16.85;10.02;;;;;;;-5.30;100.00;100512.59;4989895;28;20256;-43
2023/12/01 01:36:13;;;;;;;17.90;11.02;;;;;;;-5.34;100.00;100509.03;4966068;28;20687;-44
2023/12/01 01:38:40;;;;;;;13.65;9.48;;;;;;;-5.33;100.00;100523.00;4982956;28;20182;-44
2023/12/01 01:41:06;;;;;;;16.60;10.48;;;;;;;-5.36;100.00;100526.38;4976668;28;20205;-42
2023/12/01 01:43:31;;;;;;;17.02;10.90;;;;;;;-5.52;100.00;100514.75;4966751;28;20524;-45
2023/12/01 01:46:00;;;;;;;15.57;9.93;;;;;;;-5.40;100.00;100517.63;4982390;28;20576;-45
2023/12/01 01:48:25;;;;;;;13.75;9.57;;;;;;;-5.43;100.00;100525.38;4969554;28;20232;-41
2023/12/01 01:50:51;;;;;;;17.30;10.57;;;;;;;-5.41;100.00;100518.47;4970297;28;20209;-45
2023/12/01 01:53:17;;;;;;;17.67;9.82;;;;;;;-5.39;100.00;100516.75;4981546;28;20210;-46
2023/12/01 01:55:43;;;;;;;14.48;10.13;;;;;;;-5.36;100.00;100529.00;4984100;28;20177;-49
2023/12/01 01:58:08;;;;;;;17.58;10.23;;;;;;;-5.28;100.00;100529.19;4964075;28;20186;-46
2023/12/01 02:00:34;;;;;;;15.75;9.90;;;;;;;-5.20;100.00;100533.72;4979663;28;20204;-46
2023/12/01 02:02:59;;;;;;;19.45;10.00;;;;;;;-5.18;100.00;100528.53;4965380;28;20189;-46
2023/12/01 02:05:25;;;;;;;16.70;10.43;;;;;;;-5.18;100.00;100533.75;4980700;28;20620;-47
2023/12/01 02:07:50;;;;;;;17.52;10.25;;;;;;;-5.08;100.00;100538.28;4982080;28;20179;-48
2023/12/01 02:10:16;;;;;;;18.33;10.00;;;;;;;-5.14;100.00;100538.16;4983684;28;20205;-46
2023/12/01 02:12:44;;;;;;;15.55;10.13;;;;;;;-5.12;100.00;100533.84;4980264;28;20299;-47
2023/12/01 02:15:10;;;;;;;17.17;10.45;;;;;;;-5.02;100.00;100535.81;4980635;28;20786;-48
2023/12/01 02:17:38;;;;;;;17.48;10.38;;;;;;;-5.04;100.00;100550.56;4965283;28;20174;-48
2023/12/01 02:20:05;;;;;;;16.35;10.27;;;;;;;-5.01;100.00;100532.38;4978428;28;20292;-49
2023/12/01 02:22:31;;;;;;;16.25;9.73;;;;;;;-5.05;100.00;100534.84;4961180;28;20315;-46
2023/12/01 02:24:57;;;;;;;17.75;10.50;;;;;;;-5.03;100.00;100541.91;4981285;28;20205;-48
2023/12/01 02:27:22;;;;;;;16.40;10.27;;;;;;;-5.06;100.00;100543.56;4982569;28;20631;-48
2023/12/01 02:29:48;;;;;;;15.85;10.30;;;;;;;-5.05;100.00;100527.94;4983143;28;20228;-45
2023/12/01 02:32:13;;;;;;;15.65;10.02;;;;;;;-5.16;100.00;100547.69;4980226;28;20180;-45
2023/12/01 02:34:41;;;;;;;16.65;10.57;;;;;;;-5.12;100.00;100544.28;4979980;28;20321;-47
2023/12/01 02:37:06;;;;;;;13.85;9.55;;;;;;;-5.02;100.00;100540.16;4965870;28;20174;-45
2023/12/01 02:39:34;;;;;;;20.50;10.05;;;;;;;-5.01;100.00;100545.44;4985669;28;20196;-46
2023/12/01 02:42:02;;;;;;;14.93;10.50;;;;;;;-5.11;100.00;100555.66;4982190;28;20178;-47
2023/12/01 02:44:28;;;;;;;16.75;10.65;;;;;;;-5.14;100.00;100551.22;4984532;28;21149;-47
2023/12/01 02:46:53;;;;;;;17.10;9.57;;;;;;;-5.18;100.00;100555.53;4966672;28;20201;-45
2023/12/01 02:49:19;;;;;;;15.68;10.27;;;;;;;-5.13;100.00;100544.28;4971260;28;20201;-46
2023/12/01 02:51:44;;;;;;;18.13;10.13;;;;;;;-5.08;100.00;100540.91;4985399;28;20675;-45
2023/12/01 02:54:10;;;;;;;17.40;10.18;;;;;;;-5.21;100.00;100539.75;4968871;28;20712;-46
2023/12/01 02:56:35;;;;;;;17.52;10.85;;;;;;;-5.18;100.00;100534.63;4964813;28;20178;-46
2023/12/01 02:59:01;;;;;;;20.45;10.68;;;;;;;-5.20;100.00;100552.00;4970294;28;20186;-47
2023/12/01 03:01:26;;;;;;;16.70;10.02;;;;;;;-5.36;100.00;100541.19;4973148;28;20273;-47
2023/12/01 03:03:52;;;;;;;16.52;10.63;;;;;;;-5.36;100.00;100546.41;4985162;28;20182;-49
2023/12/01 03:06:17;;;;;;;14.15;9.90;;;;;;;-5.37;100.00;100548.13;4979940;28;20182;-47
2023/12/01 03:08:43;;;;;;;15.07;9.10;;;;;;;-5.44;100.00;100541.91;4953210;28;20213;-47
2023/12/01 03:11:08;;;;;;;16.63;10.77;;;;;;;-5.46;100.00;100545.34;4989257;28;20687;-47
2023/12/01 03:13:34;;;;;;;17.67;10.13;;;;;;;-5.45;100.00;100550.56;4972715;28;20988;-46
2023/12/01 03:16:00;;;;;;;16.98;10.20;;;;;;;-5.53;100.00;100543.41;4989491;28;20197;-47
2023/12/01 03:18:26;;;;;;;17.67;9.32;;;;;;;-5.65;100.00;100541.41;4971815;28;20243;-47
2023/12/01 03:20:53;;;;;;;14.77;8.90;;;;;;;-5.73;100.00;100542.97;4955610;28;20213;-48
2023/12/01 03:23:18;;;;;;;16.95;9.57;;;;;;;-5.98;100.00;100546.78;4987755;28;20182;-49
2023/12/01 03:25:44;;;;;;;18.15;8.77;;;;;;;-5.98;100.00;100546.78;4991206;28;20244;-47
2023/12/01 03:28:10;;;;;;;13.20;9.10;;;;;;;-5.99;100.00;100551.13;4968446;28;20190;-46
2023/12/01 03:30:35;;;;;;;14.68;9.00;;;;;;;-6.09;100.00;100544.78;4968491;28;20201;-46
2023/12/01 03:33:01;;;;;;;17.27;9.52;;;;;;;-6.33;100.00;100545.03;4972862;28;20209;-47
2023/12/01 03:35:26;;;;;;;15.88;8.80;;;;;;;-6.40;100.00;100539.66;4983842;28;20256;-46
2023/12/01 03:37:58;;;;;;;17.70;7.82;;;;;;;-6.48;100.00;100549.88;4983811;28;20186;-47
2023/12/01 03:40:25;;;;;;;13.85;8.80;;;;;;;-6.37;100.00;100534.50;4978834;28;20664;-49
2023/12/01 03:42:51;;;;;;;14.00;8.10;;;;;;;-6.58;100.00;100534.81;4991436;28;20190;-49
2023/12/01 03:45:17;;;;;;;11.48;7.40;;;;;;;-6.44;100.00;100531.75;4985157;28;20181;-47
2023/12/01 03:47:48;;;;;;;15.18;8.98;;;;;;;-6.65;100.00;100526.88;4988433;28;20189;-47
2023/12/01 03:50:15;;;;;;;14.32;7.95;;;;;;;-6.65;100.00;100537.28;4984085;28;20353;-47
2023/12/01 03:52:42;;;;;;;12.15;7.70;;;;;;;-6.49;100.00;100537.69;4981796;28;20212;-47
2023/12/01 03:55:09;;;;;;;14.10;7.30;;;;;;;-6.52;100.00;100532.38;4965017;28;20569;-45
2023/12/01 03:57:35;;;;;;;15.25;8.23;;;;;;;-6.50;100.00;100542.00;4969244;28;20520;-46
2023/12/01 04:00:04;;;;;;;14.27;8.07;;;;;;;-6.49;100.00;100548.13;4964143;28;20304;-46
2023/12/01 04:02:38;;;;;;;13.07;7.90;;;;;;;-6.64;100.00;100553.81;4983915;28;20230;-46
2023/12/01 04:05:06;;;;;;;13.13;7.93;;;;;;;-6.64;100.00;100556.41;4969184;28;20192;-48
2023/12/01 04:07:33;;;;;;;12.32;8.13;;;;;;;-6.76;100.00;100554.31;4986004;28;20181;-47
2023/12/01 04:09:59;;;;;;;12.25;7.82;;;;;;;-6.74;100.00;100554.38;4981850;28;20198;-47
2023/12/01 04:12:24;;;;;;;13.15;7.30;;;;;;;-6.84;100.00;100559.34;4981121;28;20739;-46
2023/12/01 04:14:50;;;;;;;13.40;8.00;;;;;;;-7.12;100.00;100551.59;4972497;28;20188;-46
2023/12/01 04:17:15;;;;;;;12.85;7.95;;;;;;;-7.28;100.00;100543.34;4970265;28;20854;-48
2023/12/01 04:19:41;;;;;;;12.70;7.63;;;;;;;-7.24;100.00;100544.31;4981529;28;20288;-48
2023/12/01 04:22:06;;;;;;;11.25;7.00;;;;;;;-7.25;100.00;100545.16;4982402;28;20196;-48
2023/12/01 04:24:33;;;;;;;12.43;7.78;;;;;;;-7.30;100.00;100546.75;4966235;28;20173;-48
2023/12/01 04:27:04;;;;;;;11.63;6.88;;;;;;;-7.17;100.00;100546.25;4972346;28;20186;-51
2023/12/01 04:29:30;;;;;;;10.68;6.80;;;;;;;-7.10;100.00;100535.19;4984136;28;20233;-48
2023/12/01 04:31:56;;;;;;;11.95;7.88;;;;;;;-7.07;100.00;100550.88;4977271;28;20202;-50
2023/12/01 04:34:22;;;;;;;12.02;7.82;;;;;;;-7.15;100.00;100538.47;4985959;28;20213;-49
2023/12/01 04:36:50;;;;;;;15.95;7.45;;;;;;;-7.27;100.00;100547.69;4980043;28;20182;-50
2023/12/01 04:39:15;;;;;;;11.18;7.47;;;;;;;-7.41;100.00;100540.31;4963673;28;20182;-49
2023/12/01 04:41:41;;;;;;;9.15;6.68;;;;;;;-7.50;100.00;100544.44;4982866;28;20178;-51
2023/12/01 04:44:06;;;;;;;12.93;7.82;;;;;;;-7.56;100.00;100544.25;4981705;28;20184;-51
2023/12/01 04:46:32;;;;;;;11.70;7.50;;;;;;;-7.54;100.00;100547.78;4980357;28;20644;-48
2023/12/01 04:48:57;;;;;;;8.85;6.20;;;;;;;-7.43;100.00;100552.41;4983692;28;20187;-48
2023/12/01 04:51:23;;;;;;;11.30;6.40;;;;;;;-7.35;100.00;100553.53;4981535;28;20193;-49
2023/12/01 04:53:49;;;;;;;12.30;7.43;;;;;;;-7.38;100.00;100556.03;4967109;28;20702;-50
2023/12/01 04:56:14;;;;;;;11.55;6.32;;;;;;;-7.37;100.00;100550.00;4963795;28;20659;-49
2023/12/01 04:58:40;;;;;;;10.07;6.40;;;;;;;-7.52;100.00;100553.00;4989825;28;20201;-48
2023/12/01 05:01:06;;;;;;;14.40;7.15;;;;;;;-7.59;100.00;100559.75;4982851;28;20208;-50
2023/12/01 05:03:31;;;;;;;10.57;5.78;;;;;;;-7.64;100.00;100558.72;4964586;28;20277;-49
2023/12/01 05:05:58;;;;;;;11.13;6.38;;;;;;;-7.72;100.00;100549.81;4979542;28;20576;-48
2023/12/01 05:08:27;;;;;;;12.88;7.03;;;;;;;-7.71;100.00;100565.47;4963239;28;20182;-51
2023/12/01 05:10:54;;;;;;;10.13;6.72;;;;;;;-7.79;100.00;100555.66;4968810;28;20332;-49
2023/12/01 05:13:20;;;;;;;8.55;6.00;;;;;;;-7.80;100.00;100554.78;4979116;28;20312;-48
2023/12/01 05:15:46;;;;;;;10.60;6.20;;;;;;;-7.83;100.00;100556.41;4980854;28;20203;-49
2023/12/01 05:18:11;;;;;;;9.57;6.60;;;;;;;-8.08;100.00;100553.03;4982667;28;20261;-50
2023/12/01 05:20:37;;;;;;;10.98;6.53;;;;;;;-8.13;100.00;100549.41;4982195;28;20684;-49
2023/12/01 05:23:10;;;;;;;8.85;5.45;;;;;;;-8.08;100.00;100545.22;4950334;28;20216;-48
2023/12/01 05:25:38;;;;;;;9.07;6.10;;;;;;;-7.95;100.00;100560.38;4978857;28;20247;-49
2023/12/01 05:28:07;;;;;;;9.20;5.38;;;;;;;-8.02;100.00;100555.81;4985039;28;20189;-48
2023/12/01 05:30:36;;;;;;;9.38;5.95;;;;;;;-8.10;100.00;100552.97;4983753;28;20573;-47
2023/12/01 05:33:04;;;;;;;8.68;4.97;;;;;;;-8.07;100.00;100567.75;4982065;28;20683;-48
2023/12/01 05:35:31;;;;;;;10.27;6.00;;;;;;;-8.04;100.00;100573.09;4966981;28;20635;-50
2023/12/01 05:37:58;;;;;;;8.50;5.35;;;;;;;-7.90;100.00;100568.31;4979038;28;20174;-48
2023/12/01 05:40:35;;;;;;;7.50;4.85;;;;;;;-7.90;100.00;100576.13;4977580;28;20301;-48
2023/12/01 05:43:03;;;;;;;6.63;4.32;;;;;;;-8.02;100.00;100576.63;4979989;28;20189;-49
2023/12/01 05:45:32;;;;;;;7.00;5.32;;;;;;;-7.97;100.00;100585.44;4984177;28;20569;-48
2023/12/01 05:47:58;;;;;;;7.90;4.90;;;;;;;-8.10;100.00;100583.28;4980181;28;20204;-51
2023/12/01 05:50:24;;;;;;;6.60;5.15;;;;;;;-8.16;100.00;100588.25;4978948;28;20206;-48
2023/12/01 05:52:53;;;;;;;6.68;4.28;;;;;;;-8.08;100.00;100579.88;4965030;28;20213;-50
2023/12/01 05:55:21;;;;;;;8.38;5.07;;;;;;;-8.28;100.00;100583.56;4987058;28;20185;-49
2023/12/01 05:57:48;;;;;;;5.40;4.20;;;;;;;-8.14;100.00;100581.41;4980858;28;20193;-48
2023/12/01 06:00:19;;;;;;;6.78;4.53;;;;;;;-8.04;100.00;100587.81;4976996;28;20288;-49
2023/12/01 06:02:47;;;;;;;8.55;4.30;;;;;;;-7.90;100.00;100583.91;4989447;28;20197;-52
2023/12/01 06:05:18;;;;;;;9.30;4.43;;;;;;;-7.89;100.00;100585.69;4984548;28;20657;-48
2023/12/01 06:07:49;;;;;;;8.88;4.53;;;;;;;-7.84;100.00;100585.84;4972883;28;20200;-49
2023/12/01 06:10:17;;;;;;;9.32;5.30;;;;;;;-7.80;100.00;100579.91;4979708;28;20336;-48
2023/12/01 06:12:43;;;;;;;8.48;4.90;;;;;;;-7.68;100.00;100593.28;4975515;28;20182;-50
2023/12/01 06:15:10;;;;;;;9.13;5.93;;;;;;;-7.73;100.00;100590.53;4986551;28;20197;-49
2023/12/01 06:17:41;;;;;;;8.02;4.22;;;;;;;-7.52;100.00;100585.13;4989857;28;20190;-48
2023/12/01 06:20:17;;;;;;;9.00;5.25;;;;;;;-7.40;100.00;100588.94;4984759;28;20296;-49
2023/12/01 06:22:56;;;;;;;6.53;4.80;;;;;;;-7.46;100.00;100589.63;4986922;28;20540;-47
2023/12/01 06:25:29;;;;;;;7.95;4.55;;;;;;;-7.40;100.00;100588.94;4985771;28;20531;-49
2023/12/01 06:27:56;;;;;;;7.95;4.63;;;;;;;-7.39;100.00;100596.81;4976771;28;20266;-50
2023/12/01 06:30:23;;;;;;;7.75;4.85;;;;;;;-7.37;100.00;100594.22;4986423;28;20276;-51
2023/12/01 06:32:50;;;;;;;5.75;3.85;;;;;;;-7.27;100.00;100591.06;4967498;28;20201;-48
2023/12/01 06:35:17;;;;;;;7.85;4.63;;;;;;;-7.17;100.00;100584.41;4983546;28;20217;-48
2023/12/01 06:37:44;;;;;;;9.30;4.82;;;;;;;-7.07;100.00;100597.75;4991998;28;20190;-49
2023/12/01 06:40:11;;;;;;;8.05;4.60;;;;;;;-7.11;100.00;100600.22;4966747;28;20194;-48
2023/12/01 06:42:54;;;;;;;6.22;4.35;;;;;;;-7.11;100.00;100602.81;4969591;28;20178;-50
2023/12/01 06:45:22;;;;;;;12.70;5.85;;;;;;;-7.00;100.00;100598.78;4984983;28;20575;-49
2023/12/01 06:47:48;;;;;;;16.00;7.65;;;;;;;-6.88;100.00;100617.41;4987653;28;20196;-49
2023/12/01 06:50:16;;;;;;;18.08;9.90;;;;;;;-6.79;100.00;100619.38;4983824;28;20202;-50
2023/12/01 06:52:43;;;;;;;15.85;8.05;;;;;;;-6.69;100.00;100618.81;4986193;28;20695;-49
2023/12/01 06:55:09;;;;;;;16.27;6.47;;;;;;;-6.61;100.00;100610.31;4983316;28;20174;-49
2023/12/01 06:57:46;;;;;;;18.23;8.27;;;;;;;-6.52;100.00;100615.78;4968908;28;20555;-49
2023/12/01 07:00:29;;;;;;;36.00;13.15;;;;;;;-6.63;100.00;100620.69;4979839;28;20249;-49
2023/12/01 07:02:59;;;;;;;32.80;12.23;;;;;;;-6.55;100.00;100618.31;4983986;28;20612;-50
2023/12/01 07:05:29;;;;;;;42.50;16.77;;;;;;;-6.54;100.00;100628.75;4984301;28;20220;-48
2023/12/01 07:07:59;;;;;;;20.50;9.23;;;;;;;-6.52;100.00;100629.69;4981299;28;20236;-50
2023/12/01 07:10:28;;;;;;;14.65;7.10;;;;;;;-6.39;100.00;100628.28;4982895;28;20574;-50
2023/12/01 07:12:54;;;;;;;16.25;7.78;;;;;;;-6.33;100.00;100632.78;4979116;28;20206;-47
2023/12/01 07:15:20;;;;;;;20.05;9.52;;;;;;;-6.31;100.00;100641.53;4970857;28;20686;-43
2023/12/01 07:17:50;;;;;;;19.23;9.23;;;;;;;-6.28;100.00;100650.31;4968641;28;20742;-42
2023/12/01 07:20:18;;;;;;;16.80;8.35;;;;;;;-6.28;100.00;100647.69;4970233;28;20267;-44
2023/12/01 07:22:45;;;;;;;11.73;7.40;;;;;;;-6.20;100.00;100644.44;4988945;28;20264;-43
2023/12/01 07:25:21;;;;;;;11.93;6.82;;;;;;;-6.15;100.00;100654.13;4988696;28;20213;-43
2023/12/01 07:27:57;;;;;;;10.73;6.82;;;;;;;-6.09;100.00;100653.44;4982274;28;20551;-45
2023/12/01 07:30:23;;;;;;;12.88;7.32;;;;;;;-6.04;100.00;100646.59;4986820;28;20217;-41
2023/12/01 07:32:50;;;;;;;10.65;7.20;;;;;;;-5.93;100.00;100663.38;4987796;28;20718;-43
2023/12/01 07:35:16;;;;;;;15.70;7.35;;;;;;;-5.84;100.00;100650.59;4986037;28;20652;-42
2023/12/01 07:37:51;;;;;;;13.88;8.50;;;;;;;-5.73;100.00;100665.59;4986255;28;20275;-42
2023/12/01 07:40:20;;;;;;;11.00;7.35;;;;;;;-5.67;100.00;100658.81;4980979;28;20249;-42
2023/12/01 07:42:46;;;;;;;14.93;8.13;;;;;;;-5.54;100.00;100660.00;4988280;28;20194;-41
2023/12/01 07:45:17;;;;;;;16.13;8.45;;;;;;;-5.42;100.00;100665.53;4982922;28;20184;-43
2023/12/01 07:47:43;;;;;;;14.88;7.53;;;;;;;-5.35;100.00;100663.94;4986485;28;20193;-42
2023/12/01 07:50:09;;;;;;;15.35;8.43;;;;;;;-5.19;100.00;100667.78;4963723;28;20249;-44
2023/12/01 07:52:34;;;;;;;11.60;7.47;;;;;;;-5.10;100.00;100667.97;4987062;28;20217;-42
2023/12/01 07:55:00;;;;;;;17.20;8.90;;;;;;;-5.00;100.00;100682.16;4974606;28;20662;-41
2023/12/01 07:57:25;;;;;;;11.63;7.97;;;;;;;-4.84;100.00;100681.63;4963099;28;20190;-44
2023/12/01 07:59:51;;;;;;;13.52;8.43;;;;;;;-4.78;100.00;100681.75;4979099;28;20219;-42
2023/12/01 08:02:17;;;;;;;13.25;9.07;;;;;;;-4.62;100.00;100688.19;4986331;28;20223;-42
2023/12/01 08:04:42;;;;;;;15.63;8.63;;;;;;;-4.46;100.00;100678.03;4985260;28;20574;-43
2023/12/01 08:07:08;;;;;;;15.57;10.35;;;;;;;-4.40;100.00;100684.28;4983717;28;20181;-43
2023/12/01 08:09:34;;;;;;;16.02;9.85;;;;;;;-4.41;100.00;100682.53;4987369;28;20260;-42
2023/12/01 08:12:00;;;;;;;12.60;8.77;;;;;;;-4.39;100.00;100678.22;4989339;28;20199;-43
2023/12/01 08:14:25;;;;;;;14.10;9.38;;;;;;;-4.35;100.00;100676.53;4965677;28;20209;-43
2023/12/01 08:16:52;;;;;;;14.25;8.73;;;;;;;-4.29;100.00;100679.25;4991728;28;20179;-43
2023/12/01 08:19:17;;;;;;;13.82;9.23;;;;;;;-4.28;100.00;100683.66;4982378;28;20269;-42
2023/12/01 08:21:44;;;;;;;14.32;8.02;;;;;;;-4.26;100.00;100688.94;4993042;28;20284;-43
2023/12/01 08:24:12;;;;;;;13.63;8.05;;;;;;;-4.19;100.00;100693.41;4979351;28;20186;-42
2023/12/01 08:26:38;;;;;;;13.38;7.88;;;;;;;-4.09;100.00;100697.06;4986577;28;20202;-43
2023/12/01 08:29:04;;;;;;;11.68;7.60;;;;;;;-4.03;100.00;100699.81;4997090;28;20295;-43
2023/12/01 08:31:30;;;;;;;11.90;7.72;;;;;;;-3.98;100.00;100703.38;4992491;28;20217;-43
2023/12/01 08:33:56;;;;;;;14.07;9.45;;;;;;;-3.91;100.00;100707.00;4986921;28;20240;-44
2023/12/01 08:36:22;;;;;;;15.68;8.40;;;;;;;-3.91;100.00;100700.06;4998311;28;20643;-44
2023/12/01 08:38:48;;;;;;;15.95;9.32;;;;;;;-3.91;100.00;100710.53;4992837;28;20204;-43
2023/12/01 08:41:13;;;;;;;14.30;8.30;;;;;;;-3.91;100.00;100707.91;4992405;28;20193;-43
2023/12/01 08:43:39;;;;;;;13.43;8.40;;;;;;;-3.88;100.00;100723.66;4973045;28;20617;-48
2023/12/01 08:46:05;;;;;;;13.43;7.95;;;;;;;-3.81;100.00;100701.97;4992033;28;20195;-46
2023/12/01 08:48:30;;;;;;;13.95;8.15;;;;;;;-3.78;100.00;100714.25;4991979;28;20252;-44
2023/12/01 08:50:56;;;;;;;13.35;8.57;;;;;;;-3.73;100.00;100715.22;4992458;28;20251;-44
2023/12/01 08:53:24;;;;;;;17.30;9.23;;;;;;;-3.71;100.00;100713.50;4992467;28;20303;-44
2023/12/01 08:55:50;;;;;;;14.63;8.35;;;;;;;-3.63;100.00;100721.47;4992419;28;20169;-46
2023/12/01 08:58:17;;;;;;;14.25;9.05;;;;;;;-3.56;100.00;100711.16;4974817;28;20523;-43
2023/12/01 09:00:43;;;;;;;16.65;8.27;;;;;;;-3.52;100.00;100709.44;4974701;28;20202;-43
2023/12/01 09:03:09;;;;;;;14.95;8.38;;;;;;;-3.48;100.00;100716.50;4992178;28;20542;-46
2023/12/01 09:05:35;;;;;;;13.98;8.75;;;;;;;-3.38;100.00;100714.94;4992549;28;20170;-44
2023/12/01 09:08:05;;;;;;;17.42;9.20;;;;;;;-3.41;100.00;100709.63;4992252;28;20236;-46
2023/12/01 09:10:34;;;;;;;16.83;8.85;;;;;;;-3.36;100.00;100721.09;4992518;28;20232;-47
2023/12/01 09:12:59;;;;;;;11.13;8.38;;;;;;;-3.41;100.00;100722.72;4992115;28;20209;-45
2023/12/01 09:15:25;;;;;;;14.18;9.35;;;;;;;-3.39;100.00;100716.69;4992089;28;20158;-43
2023/12/01 09:17:51;;;;;;;12.50;8.30;;;;;;;-3.32;100.00;100731.63;4974390;28;20557;-44
2023/12/01 09:20:17;;;;;;;15.95;9.35;;;;;;;-3.24;100.00;100720.38;4974645;28;20260;-43
2023/12/01 09:22:43;;;;;;;15.65;9.13;;;;;;;-3.37;100.00;100725.44;4991875;28;20178;-45
2023/12/01 09:25:09;;;;;;;12.10;8.45;;;;;;;-3.38;100.00;100726.28;4991403;28;20265;-44
2023/12/01 09:27:35;;;;;;;14.32;9.52;;;;;;;-3.19;100.00;100722.25;4973909;28;20186;-49
2023/12/01 09:30:01;;;;;;;15.82;9.55;;;;;;;-3.11;100.00;100730.19;4970716;28;20718;-45
2023/12/01 09:32:26;;;;;;;16.73;8.73;;;;;;;-3.05;100.00;100718.94;5010865;28;20167;-42
2023/12/01 09:34:52;;;;;;;17.05;9.60;;;;;;;-2.91;100.00;100720.91;5010737;28;20695;-44
2023/12/01 09:37:17;;;;;;;12.60;9.25;;;;;;;-2.89;100.00;100728.78;4993364;28;20181;-46
2023/12/01 09:39:43;;;;;;;14.93;8.73;;;;;;;-2.76;100.00;100728.09;4973804;28;20201;-45
2023/12/01 09:42:09;;;;;;;21.40;9.70;;;;;;;-2.78;100.00;100727.19;4991400;28;20191;-44
2023/12/01 09:44:37;;;;;;;14.27;8.80;;;;;;;-2.78;100.00;100739.44;4991125;28;20181;-45
2023/12/01 09:47:04;;;;;;;17.83;9.40;;;;;;;-2.78;100.00;100736.81;4991232;28;20188;-45
2023/12/01 09:49:35;;;;;;;14.40;9.20;;;;;;;-2.74;100.00;100743.88;4974032;28;20209;-43
2023/12/01 09:52:04;;;;;;;12.52;8.43;;;;;;;-2.60;100.00;100730.94;4995798;28;20287;-46
2023/12/01 09:54:31;;;;;;;16.52;9.35;;;;;;;-2.57;100.00;100725.75;4993129;28;20212;-45
2023/12/01 09:57:04;;;;;;;14.15;8.65;;;;;;;-2.53;100.00;100732.81;4993280;28;20184;-45
2023/12/01 09:59:30;;;;;;;15.55;7.78;;;;;;;-2.57;100.00;100724.00;5010836;28;20196;-45
2023/12/01 10:01:55;;;;;;;12.55;7.88;;;;;;;-2.61;100.00;100727.44;5010776;28;20270;-48
2023/12/01 10:04:21;;;;;;;13.52;7.95;;;;;;;-2.61;100.00;100735.31;5011146;28;20189;-44
2023/12/01 10:06:47;;;;;;;14.50;8.73;;;;;;;-2.73;100.00;100733.41;5011040;28;20597;-44
2023/12/01 10:09:25;;;;;;;16.60;9.05;;;;;;;-2.78;100.00;100734.19;5010974;28;20259;-48
2023/12/01 10:12:06;;;;;;;17.85;7.90;;;;;;;-2.76;100.00;100738.59;5010982;28;20200;-45
2023/12/01 10:14:32;;;;;;;15.45;8.85;;;;;;;-2.66;100.00;100736.13;5010787;28;20193;-46
2023/12/01 10:17:05;;;;;;;12.60;8.00;;;;;;;-2.63;100.00;100737.03;4993417;28;20220;-45
2023/12/01 10:19:32;;;;;;;13.68;8.50;;;;;;;-2.54;100.00;100724.03;5011109;28;20200;-45
2023/12/01 10:21:58;;;;;;;11.98;8.00;;;;;;;-2.37;100.00;100732.13;5010817;28;20323;-45
2023/12/01 10:24:24;;;;;;;11.88;7.35;;;;;;;-2.33;100.00;100725.19;5011160;28;20634;-46
2023/12/01 10:26:54;;;;;;;13.18;8.38;;;;;;;-2.16;100.00;100718.41;5011049;28;20537;-44
2023/12/01 10:29:28;;;;;;;12.13;8.23;;;;;;;-2.14;100.00;100727.19;5010788;28;20332;-45
2023/12/01 10:31:55;;;;;;;16.10;8.77;;;;;;;-2.13;100.00;100728.94;4992990;28;20519;-46
2023/12/01 10:34:21;;;;;;;13.82;7.93;;;;;;;-2.03;100.00;100715.91;5010622;28;20692;-45
2023/12/01 10:36:47;;;;;;;11.88;7.00;;;;;;;-2.02;100.00;100729.06;5010343;28;20268;-45
2023/12/01 10:39:16;;;;;;;18.02;8.80;;;;;;;-2.02;100.00;100730.81;5010953;28;20185;-46
2023/12/01 10:41:44;;;;;;;14.68;7.97;;;;;;;-1.97;100.00;100723.84;5010568;28;20173;-46
2023/12/01 10:44:16;;;;;;;16.02;8.18;;;;;;;-1.89;100.00;100722.19;4992919;28;20238;-43
2023/12/01 10:46:46;;;;;;;12.30;8.18;;;;;;;-1.88;100.00;100706.47;5011116;28;20192;-45
2023/12/01 10:49:14;;;;;;;15.93;8.57;;;;;;;-1.81;100.00;100712.66;5014028;28;20173;-47
2023/12/01 10:51:41;;;;;;;17.63;9.38;;;;;;;-1.87;100.00;100712.59;4996300;28;20216;-44
2023/12/01 10:54:09;;;;;;;14.90;9.48;;;;;;;-1.80;100.00;100706.53;5009634;28;20213;-46
2023/12/01 10:56:44;;;;;;;15.35;9.10;;;;;;;-1.81;100.00;100717.03;5012510;28;20251;-46
2023/12/01 10:59:14;;;;;;;17.38;9.75;;;;;;;-1.90;100.00;100707.31;5013959;28;20196;-44
2023/12/01 11:01:41;;;;;;;15.57;9.35;;;;;;;-2.00;100.00;100703.69;5013706;28;20275;-43
2023/12/01 11:04:10;;;;;;;18.95;10.00;;;;;;;-2.13;100.00;100705.31;5038206;22;20237;-44
2023/12/01 11:07:07;;;;;;;14.85;9.40;;;;;;;-2.09;100.00;100698.34;4987655;28;20235;-43
2023/12/01 11:09:39;;;;;;;15.10;10.13;;;;;;;-2.04;100.00;100706.28;4940243;28;20232;-46